首页
METAR-TAF:

METAR-TAF

机场 :

坎贝尔河, 不列颠哥伦比亚, 加拿大

纬度: 49-57N, 经度: 125-16W, 海拔: 106米

当前天气观测

该预报发布于42分钟前的13:00 UTC
风速6节,风向西转西北
温度 10°C
湿度 87%
气压 1016 hPa
能見度: 48.3公里
少量云层高于1200英尺

METAR: CYBL 221300Z 30006KT 30SM FEW012 10/08 A3000 RMK SC1 SLP159

时间: 06:42 (13:42 UTC)

预报

该预报发布于13小时和4分钟前的00:38 UTC
预报有效从22日的 01点(UTC)到 22日的 04点(UTC)
风速8节,风向北转西北
能見度: 10公里
少量云层高于3000英尺
散云层高于20000英尺

TAF: CYBL 220038Z 2201/2204 33008KT P6SM FEW030 SCT200 RMK NXT FCST WILL BE ISSUED AT 221445Z

超过4000个机场的气象观测和天气预报(METAR&TAF报告)。

可查询的气象台以黄色和红色小点在地图上表示。

将鼠标移到小点上方,可查看气象台名称。

然后点击查看天气观测和预报。

如需切换地图:点击带黑十字的绿色按钮放大地图;点击带横线的绿色按钮缩小地图;或者点击绿色箭头查看邻近地区的地图。


METAR-TAF: